Time;durP1;ratioP1;P1;durP2;ratioP2;P2;SDS_P1;SDS_P2;PMS_P1;PMS_P2;Temp;Humidity;BMP_temperature;BMP_pressure;BME280_temperature;BME280_humidity;BME280_pressure;Samples;Min_cycle;Max_cycle;Signal;HPM_P1;HPM_P2
2023/10/19 00:00:50;;;;;;;56.22;25.20;;;;;;;10.02;nan;99285.31;5032290;28;20026;-81
2023/10/19 00:03:17;;;;;;;59.60;26.15;;;;;;;10.07;nan;99282.97;5032102;28;20083;-82
2023/10/19 00:05:44;;;;;;;55.85;26.25;;;;;;;10.06;nan;99276.81;5032169;28;20033;-81
2023/10/19 00:08:20;;;;;;;48.90;25.10;;;;;;;10.08;nan;99274.00;5031984;28;20033;-82
2023/10/19 00:11:08;;;;;;;54.03;25.50;;;;;;;10.11;nan;99267.50;5031555;28;20032;-82
2023/10/19 00:13:40;;;;;;;52.47;24.17;;;;;;;10.13;nan;99261.00;5031988;28;20056;-81
2023/10/19 00:16:16;;;;;;;53.15;25.02;;;;;;;10.18;nan;99271.09;5032268;28;20068;-82
2023/10/19 00:18:42;;;;;;;51.25;25.15;;;;;;;10.20;nan;99275.25;5032266;28;20037;-82
2023/10/19 00:21:19;;;;;;;51.08;24.52;;;;;;;10.23;nan;99271.41;5032039;28;20116;-82
2023/10/19 00:23:47;;;;;;;52.90;24.90;;;;;;;10.24;nan;99273.91;5032471;28;20111;-82
2023/10/19 00:26:20;;;;;;;62.97;26.08;;;;;;;10.27;nan;99266.56;5031811;28;20493;-83
2023/10/19 00:28:53;;;;;;;54.53;25.23;;;;;;;10.29;nan;99272.56;5032151;28;20033;-82
2023/10/19 00:31:20;;;;;;;49.65;24.60;;;;;;;10.30;nan;99274.19;5015364;28;20061;-82
2023/10/19 00:33:46;;;;;;;47.50;24.60;;;;;;;10.31;nan;99263.38;5014073;28;20378;-83
2023/10/19 00:36:14;;;;;;;54.15;24.77;;;;;;;10.33;nan;99272.06;5031654;28;20036;-83
2023/10/19 00:38:50;;;;;;;49.90;23.10;;;;;;;10.35;nan;99266.56;5032539;28;20057;-82
2023/10/19 00:41:28;;;;;;;50.78;24.75;;;;;;;10.36;nan;99266.38;5032437;28;20323;-82
2023/10/19 00:44:04;;;;;;;47.58;22.95;;;;;;;10.37;nan;99265.38;5031770;28;20034;-82
2023/10/19 00:46:34;;;;;;;46.53;22.95;;;;;;;10.39;nan;99260.72;5031919;28;20029;-82
2023/10/19 00:49:01;;;;;;;51.50;24.90;;;;;;;10.44;nan;99259.38;5031664;28;20140;-82
2023/10/19 00:53:57;;;;;;;44.92;22.35;;;;;;;10.51;nan;99262.94;5031957;28;20046;-82
2023/10/19 00:56:26;;;;;;;51.25;23.33;;;;;;;10.53;nan;99253.78;5013299;28;20041;-82
2023/10/19 00:58:53;;;;;;;49.13;23.42;;;;;;;10.55;nan;99254.47;5013748;28;20029;-81
2023/10/19 01:01:25;;;;;;;47.25;23.33;;;;;;;10.95;nan;99262.28;5031403;28;20068;-81
2023/10/19 01:03:56;;;;;;;45.85;23.08;;;;;;;11.05;nan;99248.72;5031918;28;20116;-81
2023/10/19 01:06:22;;;;;;;52.07;24.43;;;;;;;11.11;nan;99261.31;5031252;28;20076;-82
2023/10/19 01:08:50;;;;;;;53.28;23.73;;;;;;;11.22;nan;99265.34;5031374;28;20260;-81
2023/10/19 01:11:19;;;;;;;55.47;25.65;;;;;;;11.33;nan;99267.59;5013194;28;20047;-81
2023/10/19 01:13:50;;;;;;;53.15;25.20;;;;;;;11.35;nan;99270.06;5031539;28;20056;-82
2023/10/19 01:16:20;;;;;;;51.58;24.48;;;;;;;11.29;nan;99268.94;5031257;28;20133;-82
2023/10/19 01:18:47;;;;;;;54.85;26.08;;;;;;;11.28;nan;99268.09;5031656;28;20041;-82
2023/10/19 01:21:13;;;;;;;56.20;25.25;;;;;;;11.27;nan;99266.47;5032332;28;20029;-84
2023/10/19 01:23:38;;;;;;;56.35;24.90;;;;;;;11.32;nan;99265.09;5035182;28;20060;-82
2023/10/19 01:26:07;;;;;;;49.95;23.30;;;;;;;11.36;nan;99266.38;5035211;28;20068;-82
2023/10/19 01:28:48;;;;;;;48.75;24.38;;;;;;;11.38;nan;99259.06;5034655;28;20108;-81
2023/10/19 01:33:55;;;;;;;52.40;24.65;;;;;;;11.54;nan;99266.00;5018264;28;20041;-81
2023/10/19 01:38:48;;;;;;;54.80;23.95;;;;;;;11.68;nan;99259.88;5034960;28;20050;-82
2023/10/19 01:41:14;;;;;;;45.58;22.77;;;;;;;11.75;nan;99251.97;5034547;28;20029;-82
2023/10/19 01:43:43;;;;;;;48.17;23.33;;;;;;;11.87;nan;99258.47;5034219;28;20022;-82
2023/10/19 01:46:12;;;;;;;41.95;20.23;;;;;;;12.02;nan;99254.97;5034658;28;20091;-82
2023/10/19 01:48:42;;;;;;;39.70;19.88;;;;;;;12.10;nan;99247.69;5034063;28;20470;-82
2023/10/19 01:51:13;;;;;;;34.33;17.83;;;;;;;12.15;nan;99253.31;5034368;28;20064;-82
2023/10/19 01:53:48;;;;;;;;;;;;;;;12.15;nan;99255.97;5034757;28;20105;-82
2023/10/19 01:56:16;;;;;;;29.73;15.00;;;;;;;12.24;nan;99261.16;5034230;28;20388;-82
2023/10/19 01:58:46;;;;;;;27.08;13.27;;;;;;;12.39;nan;99255.78;5034338;28;20025;-83
2023/10/19 02:03:42;;;;;;;23.48;8.13;;;;;;;12.50;nan;99252.63;5034103;28;20107;-82
2023/10/19 02:06:19;;;;;;;13.68;6.90;;;;;;;12.54;nan;99253.91;5034077;28;20060;-83
2023/10/19 02:08:55;;;;;;;12.55;6.10;;;;;;;12.62;nan;99247.63;5034580;28;20029;-83
2023/10/19 02:11:24;;;;;;;18.83;6.25;;;;;;;12.62;nan;99255.63;5034061;28;20488;-83
2023/10/19 02:13:54;;;;;;;11.50;5.53;;;;;;;12.67;nan;99243.38;5036090;28;20049;-82
2023/10/19 02:16:23;;;;;;;9.63;4.43;;;;;;;12.67;nan;99253.19;5033556;28;20069;-83
2023/10/19 02:18:50;;;;;;;8.63;4.40;;;;;;;12.65;nan;99239.22;5034234;28;20037;-83
2023/10/19 02:21:21;;;;;;;13.25;4.47;;;;;;;12.69;nan;99246.66;5016062;28;20069;-83
2023/10/19 02:23:50;;;;;;;10.77;3.97;;;;;;;12.71;nan;99249.13;5033601;28;20033;-83
2023/10/19 02:26:16;;;;;;;24.35;5.60;;;;;;;12.73;nan;99244.41;5034277;28;20041;-83
2023/10/19 02:28:43;;;;;;;11.70;3.97;;;;;;;12.75;nan;99241.56;5033878;28;20033;-83
2023/10/19 02:31:25;;;;;;;10.70;3.47;;;;;;;12.74;nan;99239.94;5033753;28;20034;-83
2023/10/19 02:34:00;;;;;;;13.93;3.97;;;;;;;12.73;nan;99239.09;5033664;28;20033;-82
2023/10/19 02:36:30;;;;;;;8.77;3.50;;;;;;;12.69;nan;99235.97;5034100;28;20025;-83
2023/10/19 02:39:07;;;;;;;12.48;3.85;;;;;;;12.65;nan;99232.03;5016345;28;20037;-83
2023/10/19 02:41:37;;;;;;;9.85;3.47;;;;;;;12.65;nan;99231.22;5033375;28;20105;-82
2023/10/19 02:46:31;;;;;;;9.18;3.35;;;;;;;12.57;nan;99234.00;5033577;28;20429;-82
2023/10/19 02:49:12;;;;;;;9.20;3.20;;;;;;;12.59;nan;99235.47;5033762;28;20445;-83
2023/10/19 02:51:39;;;;;;;29.27;3.75;;;;;;;12.60;nan;99226.47;5033704;28;20386;-81
2023/10/19 02:54:07;;;;;;;9.10;3.35;;;;;;;12.63;nan;99228.75;5033370;28;20038;-82
2023/10/19 02:56:35;;;;;;;9.02;3.33;;;;;;;12.62;nan;99231.63;5033157;28;20045;-82
2023/10/19 02:59:04;;;;;;;9.02;3.08;;;;;;;12.61;nan;99228.09;5033545;28;20033;-82
2023/10/19 03:01:33;;;;;;;8.27;3.30;;;;;;;12.66;nan;99230.22;5033137;28;20033;-83
2023/10/19 03:04:01;;;;;;;9.73;3.03;;;;;;;12.64;nan;99221.56;5015323;28;20087;-81
2023/10/19 03:06:32;;;;;;;8.38;2.97;;;;;;;12.69;nan;99229.84;5033143;28;20037;-81
2023/10/19 03:08:57;;;;;;;5.70;2.90;;;;;;;12.62;nan;99229.75;5015427;28;20076;-80
2023/10/19 03:11:27;;;;;;;10.73;2.85;;;;;;;12.64;nan;99230.38;5033030;28;20037;-81
2023/10/19 03:13:53;;;;;;;6.38;2.60;;;;;;;12.63;nan;99228.75;5032376;28;20071;-81
2023/10/19 03:16:20;;;;;;;7.97;2.65;;;;;;;12.57;nan;99226.84;5015153;28;20053;-80
2023/10/19 03:18:45;;;;;;;10.45;2.95;;;;;;;12.46;nan;99219.34;5015776;28;20044;-79
2023/10/19 03:21:11;;;;;;;9.55;2.45;;;;;;;12.35;nan;99221.50;5032742;28;20116;-84
2023/10/19 03:23:37;;;;;;;9.02;3.22;;;;;;;12.23;nan;99217.69;5032739;28;20389;-83
2023/10/19 03:26:30;;;;;;;12.15;2.85;;;;;;;12.15;nan;99225.78;5032669;28;20033;-82
2023/10/19 03:29:07;;;;;;;10.55;2.53;;;;;;;12.07;nan;99213.41;5032958;28;20030;-83
2023/10/19 03:31:32;;;;;;;10.27;2.78;;;;;;;12.02;nan;99212.31;5032668;28;20465;-83
2023/10/19 03:33:59;;;;;;;11.15;2.55;;;;;;;11.97;nan;99205.75;5032331;28;20057;-81
2023/10/19 03:36:25;;;;;;;8.60;2.30;;;;;;;11.91;nan;99211.78;5032826;28;20112;-83
2023/10/19 03:38:53;;;;;;;10.98;2.80;;;;;;;11.90;nan;99214.66;5014481;28;20088;-83
2023/10/19 03:41:24;;;;;;;13.57;2.40;;;;;;;11.92;nan;99216.09;5032320;28;20033;-83
2023/10/19 03:43:51;;;;;;;10.50;2.85;;;;;;;11.96;nan;99213.91;5032631;28;20033;-81
2023/10/19 03:46:37;;;;;;;7.05;2.53;;;;;;;11.99;nan;99213.53;5031768;28;20126;-81
2023/10/19 03:49:13;;;;;;;8.27;2.40;;;;;;;12.01;nan;99208.03;5032700;28;20033;-82
2023/10/19 03:51:58;;;;;;;9.05;2.53;;;;;;;12.05;nan;99214.63;5032271;28;20083;-82
2023/10/19 03:54:27;;;;;;;8.88;2.33;;;;;;;12.08;nan;99216.94;5032348;28;20362;-82
2023/10/19 03:56:55;;;;;;;10.32;2.67;;;;;;;12.06;nan;99217.13;5032258;28;20116;-82
2023/10/19 03:59:21;;;;;;;11.77;3.25;;;;;;;12.05;nan;99209.31;5032754;28;20055;-82
2023/10/19 04:01:46;;;;;;;5.97;2.75;;;;;;;12.07;nan;99215.25;5031929;28;20025;-81
2023/10/19 04:04:13;;;;;;;11.00;2.20;;;;;;;12.06;nan;99217.13;5032530;28;20026;-81
2023/10/19 04:06:40;;;;;;;8.15;3.30;;;;;;;12.07;nan;99207.28;5032297;28;20064;-83
2023/10/19 04:09:05;;;;;;;7.40;2.60;;;;;;;12.11;nan;99211.22;5032007;28;20073;-82
2023/10/19 04:11:51;;;;;;;8.07;2.45;;;;;;;12.16;nan;99214.13;5031953;28;20059;-83
2023/10/19 04:14:16;;;;;;;9.00;2.58;;;;;;;12.13;nan;99214.50;5034543;28;20354;-82
2023/10/19 04:16:43;;;;;;;14.02;4.53;;;;;;;12.16;nan;99216.78;5051808;28;20033;-81
2023/10/19 04:19:14;;;;;;;9.32;3.03;;;;;;;12.14;nan;99216.97;5051717;28;20039;-82
2023/10/19 04:21:43;;;;;;;11.00;2.53;;;;;;;12.14;nan;99224.16;5051843;28;20147;-81
2023/10/19 04:24:10;;;;;;;10.52;2.47;;;;;;;12.14;nan;99221.50;5052128;28;20116;-81
2023/10/19 04:26:38;;;;;;;16.95;3.22;;;;;;;12.11;nan;99217.38;5051792;28;20122;-81
2023/10/19 04:29:13;;;;;;;12.82;2.78;;;;;;;12.14;nan;99221.50;5051825;28;20041;-81
2023/10/19 04:31:49;;;;;;;8.45;2.30;;;;;;;12.16;nan;99220.28;5051568;28;20048;-81
2023/10/19 04:34:16;;;;;;;11.30;2.35;;;;;;;12.17;nan;99221.13;5052036;28;20084;-81
2023/10/19 04:36:42;;;;;;;5.70;1.63;;;;;;;12.19;nan;99218.25;5052271;28;20029;-81
2023/10/19 04:39:11;;;;;;;15.95;2.40;;;;;;;12.18;nan;99228.09;5050418;28;20044;-81
2023/10/19 04:41:37;;;;;;;13.98;2.38;;;;;;;12.19;nan;99220.94;5051716;28;20056;-80
2023/10/19 04:44:03;;;;;;;10.18;2.30;;;;;;;12.19;nan;99216.41;5051578;28;20090;-81
2023/10/19 04:46:29;;;;;;;11.07;2.45;;;;;;;12.25;nan;99220.16;5051568;28;20056;-80
2023/10/19 04:48:54;;;;;;;7.80;2.10;;;;;;;12.24;nan;99219.34;5051620;28;20476;-81
2023/10/19 04:51:20;;;;;;;6.93;2.20;;;;;;;12.23;nan;99220.34;5052148;28;20026;-80
2023/10/19 04:53:46;;;;;;;6.90;2.35;;;;;;;12.23;nan;99223.03;5051463;28;20064;-82
2023/10/19 04:56:12;;;;;;;9.10;2.38;;;;;;;12.27;nan;99224.31;5052547;28;20052;-80
2023/10/19 04:58:38;;;;;;;15.32;2.47;;;;;;;12.30;nan;99231.94;5055387;28;20466;-81
2023/10/19 05:01:03;;;;;;;11.57;2.40;;;;;;;12.29;nan;99229.44;5055298;28;20029;-82
2023/10/19 05:03:29;;;;;;;5.30;2.10;;;;;;;12.31;nan;99238.06;5055357;28;20449;-80
2023/10/19 05:05:56;;;;;;;11.10;2.17;;;;;;;12.30;nan;99236.41;5055142;28;20036;-81
2023/10/19 05:08:24;;;;;;;7.65;2.35;;;;;;;12.32;nan;99243.22;5055482;28;20036;-80
2023/10/19 05:10:54;;;;;;;13.23;2.40;;;;;;;12.35;nan;99236.69;5055026;28;20427;-81
2023/10/19 05:13:21;;;;;;;12.73;2.67;;;;;;;12.38;nan;99243.50;5050767;28;20053;-80
2023/10/19 05:15:47;;;;;;;17.45;2.72;;;;;;;12.40;nan;99238.78;5034921;28;20461;-81
2023/10/19 05:18:12;;;;;;;10.75;2.58;;;;;;;12.44;nan;99246.22;5034655;28;20470;-83
2023/10/19 05:20:40;;;;;;;6.57;2.30;;;;;;;12.41;nan;99240.44;5017393;28;20037;-82
2023/10/19 05:23:09;;;;;;;8.30;2.30;;;;;;;12.45;nan;99244.34;5034788;28;20037;-81
2023/10/19 05:25:38;;;;;;;14.30;2.17;;;;;;;12.43;nan;99233.06;5001428;28;20335;-80
2023/10/19 05:28:05;;;;;;;10.98;2.20;;;;;;;12.41;nan;99237.78;5034845;28;20057;-81
2023/10/19 05:30:31;;;;;;;14.60;2.25;;;;;;;12.40;nan;99234.25;5034877;28;20041;-80
2023/10/19 05:32:57;;;;;;;5.57;2.13;;;;;;;12.42;nan;99237.59;5035184;28;20034;-80
2023/10/19 05:35:26;;;;;;;10.32;2.15;;;;;;;12.44;nan;99232.88;5016940;28;20355;-80
2023/10/19 05:37:52;;;;;;;6.57;2.00;;;;;;;12.45;nan;99226.53;5034974;28;20040;-80
2023/10/19 05:40:18;;;;;;;10.63;2.40;;;;;;;12.45;nan;99233.69;5034404;28;20389;-82
2023/10/19 05:42:45;;;;;;;7.32;1.95;;;;;;;12.41;nan;99230.59;5034715;28;20108;-80
2023/10/19 05:45:13;;;;;;;10.82;2.00;;;;;;;12.45;nan;99241.69;5034489;28;20064;-80
2023/10/19 05:47:38;;;;;;;8.90;2.80;;;;;;;12.45;nan;99234.53;5034494;28;20044;-82
2023/10/19 05:50:04;;;;;;;8.27;1.80;;;;;;;12.42;nan;99228.75;5034607;28;20041;-80
2023/10/19 05:52:29;;;;;;;7.85;2.00;;;;;;;12.40;nan;99215.59;5034448;28;20116;-81
2023/10/19 05:54:55;;;;;;;13.07;2.10;;;;;;;12.37;nan;99223.97;5034225;28;20112;-81
2023/10/19 05:57:22;;;;;;;11.55;2.05;;;;;;;12.39;nan;99226.44;5034537;28;20121;-82
2023/10/19 05:59:48;;;;;;;10.18;1.80;;;;;;;12.41;nan;99229.78;5034662;28;20386;-80
2023/10/19 06:02:13;;;;;;;6.20;2.13;;;;;;;12.40;nan;99236.13;5016347;28;20431;-80
2023/10/19 06:04:38;;;;;;;6.07;1.83;;;;;;;12.38;nan;99228.31;5033935;28;20044;-80
2023/10/19 06:07:04;;;;;;;13.95;2.45;;;;;;;12.39;nan;99234.44;5033785;28;20030;-83
2023/10/19 06:09:29;;;;;;;12.82;2.00;;;;;;;12.41;nan;99241.25;5033476;28;20029;-80
2023/10/19 06:11:55;;;;;;;13.63;2.00;;;;;;;12.36;nan;99241.00;5033987;28;20108;-81
2023/10/19 06:14:21;;;;;;;4.68;1.80;;;;;;;12.43;nan;99243.72;5034124;28;20519;-80
2023/10/19 06:16:46;;;;;;;11.20;2.33;;;;;;;12.45;nan;99245.22;5000291;28;20033;-79
2023/10/19 06:19:11;;;;;;;13.77;4.13;;;;;;;12.48;nan;99255.50;5034083;28;20079;-81
2023/10/19 06:21:37;;;;;;;5.72;1.70;;;;;;;12.54;nan;99259.25;5033839;28;20186;-81
2023/10/19 06:24:02;;;;;;;7.00;1.67;;;;;;;12.62;nan;99255.63;4999415;28;20026;-79
2023/10/19 06:26:28;;;;;;;14.43;5.45;;;;;;;12.63;nan;99246.59;5033410;28;20042;-82
2023/10/19 06:28:59;;;;;;;8.88;1.63;;;;;;;12.62;nan;99252.94;5015752;28;20036;-80
2023/10/19 06:31:26;;;;;;;10.95;2.13;;;;;;;12.62;nan;99244.94;5033954;28;20065;-81
2023/10/19 06:33:52;;;;;;;8.60;1.90;;;;;;;12.60;nan;99258.47;5033373;28;20036;-81
2023/10/19 06:36:19;;;;;;;11.77;2.28;;;;;;;12.60;nan;99263.81;5033697;28;20036;-82
2023/10/19 06:38:44;;;;;;;10.82;2.20;;;;;;;12.62;nan;99267.09;5033315;28;20116;-81
2023/10/19 06:41:14;;;;;;;9.80;2.10;;;;;;;12.63;nan;99271.44;5033453;28;20114;-82
2023/10/19 06:43:40;;;;;;;10.98;2.35;;;;;;;12.70;nan;99264.31;5033379;28;20029;-81
2023/10/19 06:46:06;;;;;;;6.63;2.00;;;;;;;12.70;nan;99269.66;5033220;28;20087;-81
2023/10/19 06:48:32;;;;;;;11.73;2.05;;;;;;;12.69;nan;99275.19;5033597;28;20115;-81
2023/10/19 06:50:57;;;;;;;11.38;2.45;;;;;;;12.70;nan;99277.66;5033119;28;20623;-82
2023/10/19 06:53:22;;;;;;;7.28;1.85;;;;;;;12.74;nan;99270.09;5033181;28;20030;-81
2023/10/19 06:55:48;;;;;;;5.18;2.10;;;;;;;12.75;nan;99268.25;5033003;28;20052;-81
2023/10/19 06:58:19;;;;;;;8.80;2.10;;;;;;;12.76;nan;99268.03;5033634;28;20112;-81
2023/10/19 07:00:45;;;;;;;;;;;;;;;12.81;nan;99265.66;5034619;28;20030;-81
2023/10/19 07:03:11;;;;;;;11.00;1.95;;;;;;;12.85;nan;99272.25;5034035;28;19920;-81
2023/10/19 07:05:36;;;;;;;8.55;2.10;;;;;;;12.87;nan;99267.53;5034147;28;20112;-81
2023/10/19 07:08:03;;;;;;;8.73;2.20;;;;;;;12.88;nan;99269.22;5016636;28;20034;-82
2023/10/19 07:10:28;;;;;;;9.82;2.03;;;;;;;12.85;nan;99271.41;5034301;28;20041;-81
2023/10/19 07:12:56;;;;;;;17.80;2.72;;;;;;;12.86;nan;99273.88;5033607;28;20099;-81
2023/10/19 07:15:23;;;;;;;8.73;1.92;;;;;;;12.86;nan;99278.41;5034240;28;20041;-80
2023/10/19 07:17:52;;;;;;;14.80;2.75;;;;;;;12.86;nan;99283.75;5033725;28;20121;-80
2023/10/19 07:20:35;;;;;;;11.38;2.10;;;;;;;12.88;nan;99279.03;5033489;28;20055;-81
2023/10/19 07:23:09;;;;;;;11.38;2.45;;;;;;;12.91;nan;99280.50;5033617;28;20367;-85
2023/10/19 07:25:42;;;;;;;9.30;2.03;;;;;;;12.94;nan;99286.28;5033911;28;20030;-81
2023/10/19 07:28:14;;;;;;;8.32;2.30;;;;;;;12.99;nan;99281.19;5033860;28;20366;-81
2023/10/19 07:30:41;;;;;;;11.40;2.38;;;;;;;13.02;nan;99282.66;5034207;28;20040;-82
2023/10/19 07:33:09;;;;;;;11.75;2.28;;;;;;;13.05;nan;99285.75;5034041;28;20029;-81
2023/10/19 07:35:38;;;;;;;10.90;2.50;;;;;;;13.10;nan;99285.19;5016106;28;20032;-82
2023/10/19 07:38:04;;;;;;;8.60;2.67;;;;;;;13.11;nan;99284.16;5033588;28;20029;-83
2023/10/19 07:40:30;;;;;;;9.80;2.38;;;;;;;13.14;nan;99293.66;5015476;28;20087;-82
2023/10/19 07:42:55;;;;;;;18.45;2.83;;;;;;;13.20;nan;99296.34;5033527;28;20458;-82
2023/10/19 07:45:21;;;;;;;10.75;3.13;;;;;;;13.24;nan;99291.44;5033526;28;20040;-82
2023/10/19 07:47:47;;;;;;;8.55;2.42;;;;;;;13.28;nan;99298.06;5033454;28;20052;-82
2023/10/19 07:50:16;;;;;;;7.40;2.05;;;;;;;13.32;nan;99304.66;5033496;28;20434;-81
2023/10/19 07:52:48;;;;;;;11.98;2.35;;;;;;;13.38;nan;99309.25;5033349;28;20366;-82
2023/10/19 07:55:15;;;;;;;8.18;1.88;;;;;;;13.44;nan;99298.81;5033118;28;20457;-82
2023/10/19 07:57:40;;;;;;;7.78;1.88;;;;;;;13.49;nan;99301.72;5033118;28;20108;-82
2023/10/19 08:00:08;;;;;;;13.40;2.45;;;;;;;13.55;nan;99292.91;5015527;28;20065;-83
2023/10/19 08:02:34;;;;;;;9.80;2.40;;;;;;;13.59;nan;99294.19;5033274;28;20033;-82
2023/10/19 08:05:02;;;;;;;14.40;2.05;;;;;;;13.68;nan;99292.19;5015420;28;20116;-83
2023/10/19 08:07:28;;;;;;;7.70;2.10;;;;;;;13.74;nan;99289.53;5033790;28;20048;-84
2023/10/19 08:09:54;;;;;;;11.27;2.00;;;;;;;13.79;nan;99288.13;5033512;28;20030;-84
2023/10/19 08:12:22;;;;;;;13.02;2.25;;;;;;;13.83;nan;99279.50;5032715;28;20389;-83
2023/10/19 08:14:48;;;;;;;16.58;3.55;;;;;;;13.91;nan;99281.19;5035230;28;20494;-83
2023/10/19 08:17:14;;;;;;;13.23;2.03;;;;;;;13.96;nan;99289.44;5032933;28;20466;-84
2023/10/19 08:19:40;;;;;;;9.18;1.70;;;;;;;14.00;nan;99285.38;5033016;28;20039;-85
2023/10/19 08:22:05;;;;;;;13.48;2.25;;;;;;;13.99;nan;99286.38;5032941;28;20358;-84
2023/10/19 08:24:34;;;;;;;8.98;2.08;;;;;;;14.05;nan;99287.44;5032522;28;20040;-83
2023/10/19 08:27:00;;;;;;;9.93;1.80;;;;;;;14.11;nan;99284.78;5032953;28;20037;-84
2023/10/19 08:29:26;;;;;;;19.40;3.28;;;;;;;14.19;nan;99283.78;5033477;28;20045;-84
2023/10/19 08:31:51;;;;;;;11.23;2.67;;;;;;;14.24;nan;99280.50;5001171;28;20029;-84
2023/10/19 08:34:17;;;;;;;11.70;2.35;;;;;;;14.32;nan;99285.66;5036774;28;20112;-85
2023/10/19 08:36:42;;;;;;;11.15;2.22;;;;;;;14.35;nan;99287.13;5037488;28;20041;-84
2023/10/19 08:39:11;;;;;;;13.25;2.25;;;;;;;14.41;nan;99289.81;5036630;28;20060;-86
2023/10/19 08:41:37;;;;;;;13.77;2.88;;;;;;;14.43;nan;99281.56;5036751;28;20075;-84
2023/10/19 08:44:15;;;;;;;10.70;2.40;;;;;;;14.52;nan;99275.00;5036408;28;20101;-84
2023/10/19 08:46:45;;;;;;;11.40;2.10;;;;;;;14.59;nan;99270.50;5036680;28;20122;-84
2023/10/19 08:49:15;;;;;;;14.65;2.80;;;;;;;14.62;nan;99267.44;5036822;28;20086;-87
2023/10/19 08:51:45;;;;;;;11.68;3.35;;;;;;;14.77;nan;99274.47;5036352;28;20038;-84
2023/10/19 08:54:11;;;;;;;8.70;2.30;;;;;;;14.91;nan;99268.09;5036515;28;20037;-85
2023/10/19 08:56:38;;;;;;;15.07;2.75;;;;;;;15.04;nan;99269.13;5036348;28;20025;-83
2023/10/19 08:59:06;;;;;;;9.95;3.90;;;;;;;15.24;nan;99271.78;5036469;28;20026;-84
2023/10/19 09:01:31;;;;;;;12.25;2.45;;;;;;;15.43;nan;99268.25;5036185;28;20033;-83
2023/10/19 09:04:00;;;;;;;10.65;2.90;;;;;;;15.56;nan;99261.22;5037070;28;20573;-85
2023/10/19 09:06:28;;;;;;;17.90;2.72;;;;;;;15.58;nan;99251.91;5018820;28;20034;-83
2023/10/19 09:08:53;;;;;;;10.80;2.88;;;;;;;15.51;nan;99251.94;5036011;28;20105;-84
2023/10/19 09:11:20;;;;;;;14.18;2.65;;;;;;;15.57;nan;99246.78;5035927;28;20045;-84
2023/10/19 09:13:50;;;;;;;10.30;2.40;;;;;;;15.55;nan;99251.53;5035800;28;20081;-82
2023/10/19 09:16:20;;;;;;;11.98;2.53;;;;;;;15.55;nan;99246.16;5035974;28;20107;-84
2023/10/19 09:18:50;;;;;;;10.52;2.60;;;;;;;15.62;nan;99249.66;5036202;28;20022;-83
2023/10/19 09:21:26;;;;;;;12.35;2.40;;;;;;;15.63;nan;99240.56;5036047;28;20044;-87
2023/10/19 09:23:52;;;;;;;14.63;2.70;;;;;;;15.64;nan;99240.34;5036563;28;20037;-83
2023/10/19 09:26:18;;;;;;;11.68;2.63;;;;;;;15.60;nan;99241.84;5035625;28;20060;-82
2023/10/19 09:28:48;;;;;;;13.32;2.60;;;;;;;15.60;nan;99252.56;5035742;28;20439;-83
2023/10/19 09:31:16;;;;;;;9.20;2.40;;;;;;;15.60;nan;99235.63;5035750;28;20496;-83
2023/10/19 09:33:45;;;;;;;15.00;2.78;;;;;;;15.69;nan;99229.03;5036000;28;20065;-82
2023/10/19 09:36:15;;;;;;;13.43;2.65;;;;;;;15.66;nan;99219.53;5035633;28;20053;-81
2023/10/19 09:38:48;;;;;;;15.23;3.13;;;;;;;15.77;nan;99223.41;5035957;28;20033;-81
2023/10/19 09:41:17;;;;;;;16.58;3.03;;;;;;;15.79;nan;99234.75;5036041;28;20383;-81
2023/10/19 09:43:45;;;;;;;13.60;2.85;;;;;;;15.86;nan;99227.53;5033892;28;20049;-82
2023/10/19 09:46:12;;;;;;;9.93;2.70;;;;;;;15.89;nan;99217.41;5035522;28;20033;-82
2023/10/19 09:48:45;;;;;;;10.68;2.50;;;;;;;16.04;nan;99216.09;5017561;28;20095;-80
2023/10/19 09:51:11;;;;;;;23.50;3.10;;;;;;;16.11;nan;99218.75;5035939;28;20045;-80
2023/10/19 09:53:39;;;;;;;14.55;3.25;;;;;;;16.16;nan;99218.91;5035042;28;20437;-81
2023/10/19 09:56:07;;;;;;;15.23;3.88;;;;;;;15.99;nan;99225.84;5035564;28;20149;-82
2023/10/19 09:58:40;;;;;;;11.63;2.85;;;;;;;15.97;nan;99230.56;5035532;28;20112;-81
2023/10/19 10:01:11;;;;;;;13.40;3.28;;;;;;;15.79;nan;99231.28;5034740;28;20033;-80
2023/10/19 10:03:47;;;;;;;13.90;2.90;;;;;;;15.68;nan;99230.88;5035167;28;20108;-81
2023/10/19 10:06:36;;;;;;;12.70;2.80;;;;;;;15.47;nan;99226.59;5034733;28;20077;-80
2023/10/19 10:09:11;;;;;;;17.23;3.50;;;;;;;15.33;nan;99238.38;5020911;28;20045;-80
2023/10/19 10:11:37;;;;;;;11.38;2.85;;;;;;;15.29;nan;99243.34;5035684;28;20033;-80
2023/10/19 10:14:21;;;;;;;10.30;2.88;;;;;;;15.35;nan;99233.66;5034799;28;20393;-81
2023/10/19 10:16:48;;;;;;;15.50;3.38;;;;;;;15.32;nan;99234.06;5035423;28;20162;-81
2023/10/19 10:19:20;;;;;;;22.10;3.42;;;;;;;15.49;nan;99232.56;5016982;28;20495;-80
2023/10/19 10:22:05;;;;;;;16.67;3.10;;;;;;;15.76;nan;99226.31;5035031;28;20072;-80
2023/10/19 10:24:31;;;;;;;13.80;3.13;;;;;;;16.12;nan;99209.69;5035357;28;20159;-80
2023/10/19 10:26:58;;;;;;;9.25;2.97;;;;;;;16.62;nan;99208.91;5034640;28;20041;-81
2023/10/19 10:29:28;;;;;;;14.77;3.30;;;;;;;17.06;nan;99214.34;5017406;28;20416;-80
2023/10/19 10:31:53;;;;;;;11.75;2.80;;;;;;;17.23;nan;99220.81;5017432;28;20041;-81
2023/10/19 10:34:37;;;;;;;13.85;2.90;;;;;;;17.27;nan;99227.41;5035089;28;20074;-81
2023/10/19 10:37:03;;;;;;;12.30;2.75;;;;;;;17.20;nan;99221.25;5034529;28;20474;-81
2023/10/19 10:39:34;;;;;;;10.90;3.42;;;;;;;17.09;nan;99206.69;5034400;28;20509;-81
2023/10/19 10:42:02;;;;;;;12.30;2.85;;;;;;;17.33;nan;99206.88;5034415;28;20040;-82
2023/10/19 10:44:41;;;;;;;15.02;3.03;;;;;;;17.50;nan;99211.66;5034209;28;20047;-81
2023/10/19 10:47:33;;;;;;;17.73;3.00;;;;;;;17.48;nan;99201.13;5034249;28;20026;-82
2023/10/19 10:50:00;;;;;;;12.38;2.95;;;;;;;17.47;nan;99207.53;5029979;28;20147;-81
2023/10/19 10:52:36;;;;;;;13.57;3.03;;;;;;;17.40;nan;99202.22;5034566;28;20032;-82
2023/10/19 10:55:14;;;;;;;15.35;3.30;;;;;;;17.31;nan;99202.75;5034357;28;20029;-81
2023/10/19 10:57:41;;;;;;;15.38;2.75;;;;;;;17.16;nan;99200.44;5034348;28;20030;-82
2023/10/19 11:00:23;;;;;;;13.63;2.88;;;;;;;17.19;nan;99190.03;5034052;28;20037;-81
2023/10/19 11:03:09;;;;;;;18.20;2.80;;;;;;;17.33;nan;99179.16;5034524;28;20044;-81
2023/10/19 11:05:38;;;;;;;11.18;3.17;;;;;;;17.40;nan;99187.97;5034210;28;20033;-82
2023/10/19 11:08:05;;;;;;;11.63;2.53;;;;;;;17.69;nan;99207.06;5033685;28;20033;-82
2023/10/19 11:10:31;;;;;;;13.80;2.88;;;;;;;17.85;nan;99198.38;5033865;28;20091;-82
2023/10/19 11:13:05;;;;;;;13.55;2.90;;;;;;;17.85;nan;99186.81;5033386;28;20049;-82
2023/10/19 11:15:32;;;;;;;16.33;2.80;;;;;;;17.98;nan;99176.72;5035722;28;20367;-82
2023/10/19 11:17:58;;;;;;;13.02;2.60;;;;;;;17.96;nan;99178.81;5033761;28;20049;-83
2023/10/19 11:20:25;;;;;;;14.63;2.63;;;;;;;18.07;nan;99166.47;5034240;28;20028;-82
2023/10/19 11:22:53;;;;;;;16.10;2.88;;;;;;;18.09;nan;99168.91;5033576;28;20036;-83
2023/10/19 11:25:24;;;;;;;11.23;2.55;;;;;;;17.97;nan;99160.81;5033464;28;20377;-82
2023/10/19 11:27:49;;;;;;;;;;;;;;;17.87;nan;99157.81;5034581;28;20346;-82
2023/10/19 11:30:23;;;;;;;10.48;2.55;;;;;;;17.62;nan;99159.56;5033226;28;19913;-83
2023/10/19 11:32:52;;;;;;;12.23;3.25;;;;;;;17.63;nan;99163.09;5033700;28;20052;-83
2023/10/19 11:35:19;;;;;;;11.70;2.80;;;;;;;17.59;nan;99162.72;5033468;28;20029;-82
2023/10/19 11:37:59;;;;;;;10.68;2.20;;;;;;;17.47;nan;99151.09;5015423;28;20124;-84
2023/10/19 11:40:26;;;;;;;14.50;2.65;;;;;;;17.42;nan;99146.38;5032904;28;20083;-83
2023/10/19 11:42:56;;;;;;;18.65;3.03;;;;;;;17.23;nan;99152.81;5033061;28;20124;-82
2023/10/19 11:45:23;;;;;;;18.55;3.33;;;;;;;17.16;nan;99146.69;5033323;28;20030;-83
2023/10/19 11:47:49;;;;;;;11.85;2.42;;;;;;;17.08;nan;99145.13;5032771;28;20504;-82
2023/10/19 11:50:15;;;;;;;15.73;2.53;;;;;;;17.00;nan;99140.03;5033207;28;20029;-83
2023/10/19 11:52:43;;;;;;;13.85;2.47;;;;;;;16.92;nan;99139.25;5032659;28;20033;-82
2023/10/19 11:55:09;;;;;;;15.70;2.88;;;;;;;16.90;nan;99141.34;5032840;28;20037;-83
2023/10/19 11:57:35;;;;;;;12.95;2.30;;;;;;;16.90;nan;99138.69;5033487;28;20038;-84
2023/10/19 12:00:08;;;;;;;14.77;2.38;;;;;;;16.89;nan;99138.91;5033002;28;20029;-82
2023/10/19 12:02:40;;;;;;;13.25;2.63;;;;;;;16.81;nan;99128.41;5016806;28;20044;-85
2023/10/19 12:05:09;;;;;;;9.18;2.40;;;;;;;16.69;nan;99133.66;5032873;28;20030;-83